sensor_id;sensor_type;location;lat;lon;timestamp;P1;durP1;ratioP1;P2;durP2;ratioP2
13816;SDS011;6979;52.116;5.286;2022-12-18T00:00:45;36.20;;;22.50;;
13816;SDS011;6979;52.116;5.286;2022-12-18T00:03:13;36.93;;;23.23;;
13816;SDS011;6979;52.116;5.286;2022-12-18T00:05:46;36.23;;;24.07;;
13816;SDS011;6979;52.116;5.286;2022-12-18T00:08:13;31.50;;;21.50;;
13816;SDS011;6979;52.116;5.286;2022-12-18T00:10:41;38.83;;;24.70;;
13816;SDS011;6979;52.116;5.286;2022-12-18T00:13:08;37.40;;;24.30;;
13816;SDS011;6979;52.116;5.286;2022-12-18T00:15:36;34.73;;;24.47;;
13816;SDS011;6979;52.116;5.286;2022-12-18T00:18:05;35.00;;;23.30;;
13816;SDS011;6979;52.116;5.286;2022-12-18T00:20:35;30.67;;;21.73;;
13816;SDS011;6979;52.116;5.286;2022-12-18T00:23:03;36.17;;;23.77;;
13816;SDS011;6979;52.116;5.286;2022-12-18T00:25:32;36.83;;;24.40;;
13816;SDS011;6979;52.116;5.286;2022-12-18T00:27:59;35.47;;;21.87;;
13816;SDS011;6979;52.116;5.286;2022-12-18T00:30:26;34.10;;;22.80;;
13816;SDS011;6979;52.116;5.286;2022-12-18T00:32:55;32.57;;;22.47;;
13816;SDS011;6979;52.116;5.286;2022-12-18T00:35:24;31.10;;;20.60;;
13816;SDS011;6979;52.116;5.286;2022-12-18T00:37:51;32.33;;;21.33;;
13816;SDS011;6979;52.116;5.286;2022-12-18T00:40:18;37.03;;;25.43;;
13816;SDS011;6979;52.116;5.286;2022-12-18T00:42:45;35.97;;;24.37;;
13816;SDS011;6979;52.116;5.286;2022-12-18T00:45:23;33.30;;;22.33;;
13816;SDS011;6979;52.116;5.286;2022-12-18T00:47:50;39.10;;;24.33;;
13816;SDS011;6979;52.116;5.286;2022-12-18T00:50:18;31.87;;;22.17;;
13816;SDS011;6979;52.116;5.286;2022-12-18T00:52:46;32.53;;;21.90;;
13816;SDS011;6979;52.116;5.286;2022-12-18T00:55:13;35.20;;;23.77;;
13816;SDS011;6979;52.116;5.286;2022-12-18T00:57:41;37.17;;;23.97;;
13816;SDS011;6979;52.116;5.286;2022-12-18T01:00:08;36.87;;;23.77;;
13816;SDS011;6979;52.116;5.286;2022-12-18T01:02:38;37.93;;;22.63;;
13816;SDS011;6979;52.116;5.286;2022-12-18T01:05:06;37.93;;;21.93;;
13816;SDS011;6979;52.116;5.286;2022-12-18T01:07:35;35.30;;;23.93;;
13816;SDS011;6979;52.116;5.286;2022-12-18T01:10:03;37.53;;;25.17;;
13816;SDS011;6979;52.116;5.286;2022-12-18T01:12:30;39.30;;;21.77;;
13816;SDS011;6979;52.116;5.286;2022-12-18T01:14:57;39.03;;;24.80;;
13816;SDS011;6979;52.116;5.286;2022-12-18T01:17:24;39.93;;;25.00;;
13816;SDS011;6979;52.116;5.286;2022-12-18T01:19:52;39.70;;;25.23;;
13816;SDS011;6979;52.116;5.286;2022-12-18T01:22:19;35.27;;;23.93;;
13816;SDS011;6979;52.116;5.286;2022-12-18T01:24:47;39.57;;;25.10;;
13816;SDS011;6979;52.116;5.286;2022-12-18T01:27:14;40.07;;;24.30;;
13816;SDS011;6979;52.116;5.286;2022-12-18T01:29:41;36.40;;;23.73;;
13816;SDS011;6979;52.116;5.286;2022-12-18T01:32:08;36.57;;;23.33;;
13816;SDS011;6979;52.116;5.286;2022-12-18T01:34:35;34.47;;;23.47;;
13816;SDS011;6979;52.116;5.286;2022-12-18T01:37:02;39.00;;;25.00;;
13816;SDS011;6979;52.116;5.286;2022-12-18T01:39:30;36.83;;;23.90;;
13816;SDS011;6979;52.116;5.286;2022-12-18T01:41:59;40.00;;;26.43;;
13816;SDS011;6979;52.116;5.286;2022-12-18T01:47:28;33.17;;;21.87;;
13816;SDS011;6979;52.116;5.286;2022-12-18T01:49:58;31.53;;;22.53;;
13816;SDS011;6979;52.116;5.286;2022-12-18T01:52:28;35.03;;;23.03;;
13816;SDS011;6979;52.116;5.286;2022-12-18T01:54:58;37.20;;;22.90;;
13816;SDS011;6979;52.116;5.286;2022-12-18T01:57:27;35.30;;;22.70;;
13816;SDS011;6979;52.116;5.286;2022-12-18T01:59:55;30.83;;;22.23;;
13816;SDS011;6979;52.116;5.286;2022-12-18T02:02:25;33.57;;;23.43;;
13816;SDS011;6979;52.116;5.286;2022-12-18T02:04:54;36.30;;;22.57;;
13816;SDS011;6979;52.116;5.286;2022-12-18T02:07:24;34.97;;;23.47;;
13816;SDS011;6979;52.116;5.286;2022-12-18T02:10:00;30.43;;;21.87;;
13816;SDS011;6979;52.116;5.286;2022-12-18T02:12:34;30.10;;;20.93;;
13816;SDS011;6979;52.116;5.286;2022-12-18T02:15:10;31.87;;;21.67;;
13816;SDS011;6979;52.116;5.286;2022-12-18T02:17:43;32.17;;;21.63;;
13816;SDS011;6979;52.116;5.286;2022-12-18T02:20:16;30.67;;;20.67;;
13816;SDS011;6979;52.116;5.286;2022-12-18T02:22:53;29.10;;;20.10;;
13816;SDS011;6979;52.116;5.286;2022-12-18T02:28:38;29.27;;;21.67;;
13816;SDS011;6979;52.116;5.286;2022-12-18T02:31:10;31.13;;;21.10;;
13816;SDS011;6979;52.116;5.286;2022-12-18T02:33:41;28.07;;;19.53;;
13816;SDS011;6979;52.116;5.286;2022-12-18T02:36:11;29.70;;;21.07;;
13816;SDS011;6979;52.116;5.286;2022-12-18T02:38:41;28.10;;;19.17;;
13816;SDS011;6979;52.116;5.286;2022-12-18T02:41:11;28.30;;;20.70;;
13816;SDS011;6979;52.116;5.286;2022-12-18T02:43:46;31.53;;;21.93;;
13816;SDS011;6979;52.116;5.286;2022-12-18T02:49:14;27.90;;;20.13;;
13816;SDS011;6979;52.116;5.286;2022-12-18T02:51:51;29.80;;;19.83;;
13816;SDS011;6979;52.116;5.286;2022-12-18T02:54:32;28.47;;;20.43;;
13816;SDS011;6979;52.116;5.286;2022-12-18T02:57:10;31.57;;;20.70;;
13816;SDS011;6979;52.116;5.286;2022-12-18T02:59:46;29.80;;;21.87;;
13816;SDS011;6979;52.116;5.286;2022-12-18T03:02:21;32.10;;;20.97;;
13816;SDS011;6979;52.116;5.286;2022-12-18T03:04:53;26.50;;;19.20;;
13816;SDS011;6979;52.116;5.286;2022-12-18T03:07:27;29.83;;;20.57;;
13816;SDS011;6979;52.116;5.286;2022-12-18T03:10:03;28.47;;;18.17;;
13816;SDS011;6979;52.116;5.286;2022-12-18T03:12:36;32.00;;;21.60;;
13816;SDS011;6979;52.116;5.286;2022-12-18T03:15:12;29.87;;;20.33;;
13816;SDS011;6979;52.116;5.286;2022-12-18T03:17:44;28.80;;;19.97;;
13816;SDS011;6979;52.116;5.286;2022-12-18T03:20:17;29.67;;;19.77;;
13816;SDS011;6979;52.116;5.286;2022-12-18T03:22:47;26.20;;;18.63;;
13816;SDS011;6979;52.116;5.286;2022-12-18T03:25:18;29.87;;;19.97;;
13816;SDS011;6979;52.116;5.286;2022-12-18T03:27:46;29.13;;;19.87;;
13816;SDS011;6979;52.116;5.286;2022-12-18T03:30:20;26.83;;;19.33;;
13816;SDS011;6979;52.116;5.286;2022-12-18T03:32:48;29.37;;;20.00;;
13816;SDS011;6979;52.116;5.286;2022-12-18T03:35:21;28.43;;;20.50;;
13816;SDS011;6979;52.116;5.286;2022-12-18T03:37:52;28.00;;;20.27;;
13816;SDS011;6979;52.116;5.286;2022-12-18T03:40:19;28.63;;;19.97;;
13816;SDS011;6979;52.116;5.286;2022-12-18T03:42:51;30.17;;;21.03;;
13816;SDS011;6979;52.116;5.286;2022-12-18T03:45:28;27.90;;;20.97;;
13816;SDS011;6979;52.116;5.286;2022-12-18T03:48:01;28.30;;;19.40;;
13816;SDS011;6979;52.116;5.286;2022-12-18T03:50:37;28.53;;;20.23;;
13816;SDS011;6979;52.116;5.286;2022-12-18T03:53:17;28.83;;;20.27;;
13816;SDS011;6979;52.116;5.286;2022-12-18T03:55:51;29.77;;;19.60;;
13816;SDS011;6979;52.116;5.286;2022-12-18T03:58:20;27.70;;;18.57;;
13816;SDS011;6979;52.116;5.286;2022-12-18T04:01:09;25.13;;;19.60;;
13816;SDS011;6979;52.116;5.286;2022-12-18T04:03:43;26.97;;;19.40;;
13816;SDS011;6979;52.116;5.286;2022-12-18T04:06:12;27.30;;;19.87;;
13816;SDS011;6979;52.116;5.286;2022-12-18T04:08:42;26.47;;;18.07;;
13816;SDS011;6979;52.116;5.286;2022-12-18T04:11:13;24.73;;;17.70;;
13816;SDS011;6979;52.116;5.286;2022-12-18T04:13:42;26.47;;;19.30;;
13816;SDS011;6979;52.116;5.286;2022-12-18T04:16:18;25.93;;;19.37;;
13816;SDS011;6979;52.116;5.286;2022-12-18T04:18:49;28.83;;;17.93;;
13816;SDS011;6979;52.116;5.286;2022-12-18T04:21:17;27.43;;;18.30;;
13816;SDS011;6979;52.116;5.286;2022-12-18T04:23:44;25.87;;;17.47;;
13816;SDS011;6979;52.116;5.286;2022-12-18T04:26:12;26.63;;;17.10;;
13816;SDS011;6979;52.116;5.286;2022-12-18T04:28:59;25.33;;;19.10;;
13816;SDS011;6979;52.116;5.286;2022-12-18T04:31:29;22.07;;;15.93;;
13816;SDS011;6979;52.116;5.286;2022-12-18T04:33:55;24.17;;;18.00;;
13816;SDS011;6979;52.116;5.286;2022-12-18T04:36:26;19.00;;;15.30;;
13816;SDS011;6979;52.116;5.286;2022-12-18T04:38:54;24.20;;;15.60;;
13816;SDS011;6979;52.116;5.286;2022-12-18T04:41:21;19.97;;;15.80;;
13816;SDS011;6979;52.116;5.286;2022-12-18T04:43:51;20.17;;;14.97;;
13816;SDS011;6979;52.116;5.286;2022-12-18T04:46:18;21.80;;;15.00;;
13816;SDS011;6979;52.116;5.286;2022-12-18T04:48:46;21.83;;;16.07;;
13816;SDS011;6979;52.116;5.286;2022-12-18T04:51:13;18.43;;;15.40;;
13816;SDS011;6979;52.116;5.286;2022-12-18T04:53:40;19.73;;;15.07;;
13816;SDS011;6979;52.116;5.286;2022-12-18T04:56:08;21.93;;;15.00;;
13816;SDS011;6979;52.116;5.286;2022-12-18T04:58:36;21.87;;;14.80;;
13816;SDS011;6979;52.116;5.286;2022-12-18T05:01:04;20.07;;;14.93;;
13816;SDS011;6979;52.116;5.286;2022-12-18T05:03:32;21.90;;;15.03;;
13816;SDS011;6979;52.116;5.286;2022-12-18T05:06:01;23.03;;;17.07;;
13816;SDS011;6979;52.116;5.286;2022-12-18T05:08:28;21.23;;;14.83;;
13816;SDS011;6979;52.116;5.286;2022-12-18T05:10:58;17.83;;;13.33;;
13816;SDS011;6979;52.116;5.286;2022-12-18T05:13:26;21.00;;;14.00;;
13816;SDS011;6979;52.116;5.286;2022-12-18T05:15:53;19.63;;;15.17;;
13816;SDS011;6979;52.116;5.286;2022-12-18T05:18:20;19.83;;;13.47;;
13816;SDS011;6979;52.116;5.286;2022-12-18T05:20:48;18.83;;;13.93;;
13816;SDS011;6979;52.116;5.286;2022-12-18T05:23:17;18.23;;;14.13;;
13816;SDS011;6979;52.116;5.286;2022-12-18T05:25:49;17.07;;;13.70;;
13816;SDS011;6979;52.116;5.286;2022-12-18T05:28:18;17.07;;;13.73;;
13816;SDS011;6979;52.116;5.286;2022-12-18T05:30:47;18.50;;;14.53;;
13816;SDS011;6979;52.116;5.286;2022-12-18T05:33:15;17.83;;;13.23;;
13816;SDS011;6979;52.116;5.286;2022-12-18T05:35:42;16.67;;;13.37;;
13816;SDS011;6979;52.116;5.286;2022-12-18T05:38:09;22.07;;;15.57;;
13816;SDS011;6979;52.116;5.286;2022-12-18T05:40:37;15.63;;;12.00;;
13816;SDS011;6979;52.116;5.286;2022-12-18T05:43:07;16.30;;;12.83;;
13816;SDS011;6979;52.116;5.286;2022-12-18T05:45:36;18.20;;;13.30;;
13816;SDS011;6979;52.116;5.286;2022-12-18T05:48:04;18.90;;;12.87;;
13816;SDS011;6979;52.116;5.286;2022-12-18T05:50:33;18.53;;;13.63;;
13816;SDS011;6979;52.116;5.286;2022-12-18T05:53:00;17.53;;;13.80;;
13816;SDS011;6979;52.116;5.286;2022-12-18T05:55:27;20.03;;;13.93;;
13816;SDS011;6979;52.116;5.286;2022-12-18T05:57:55;17.67;;;12.90;;
13816;SDS011;6979;52.116;5.286;2022-12-18T06:00:22;16.20;;;13.00;;
13816;SDS011;6979;52.116;5.286;2022-12-18T06:02:49;19.23;;;14.27;;
13816;SDS011;6979;52.116;5.286;2022-12-18T06:05:16;15.40;;;12.23;;
13816;SDS011;6979;52.116;5.286;2022-12-18T06:07:43;17.30;;;11.93;;
13816;SDS011;6979;52.116;5.286;2022-12-18T06:10:09;14.77;;;12.33;;
13816;SDS011;6979;52.116;5.286;2022-12-18T06:12:36;17.07;;;13.17;;
13816;SDS011;6979;52.116;5.286;2022-12-18T06:15:06;17.00;;;12.40;;
13816;SDS011;6979;52.116;5.286;2022-12-18T06:17:33;19.10;;;15.70;;
13816;SDS011;6979;52.116;5.286;2022-12-18T06:20:01;15.77;;;14.00;;
13816;SDS011;6979;52.116;5.286;2022-12-18T06:22:28;17.07;;;13.33;;
13816;SDS011;6979;52.116;5.286;2022-12-18T06:24:57;15.40;;;13.33;;
13816;SDS011;6979;52.116;5.286;2022-12-18T06:27:24;12.80;;;11.13;;
13816;SDS011;6979;52.116;5.286;2022-12-18T06:29:51;14.70;;;12.07;;
13816;SDS011;6979;52.116;5.286;2022-12-18T06:32:19;14.33;;;10.93;;
13816;SDS011;6979;52.116;5.286;2022-12-18T06:34:46;14.97;;;12.30;;
13816;SDS011;6979;52.116;5.286;2022-12-18T06:37:13;16.73;;;12.30;;
13816;SDS011;6979;52.116;5.286;2022-12-18T06:39:40;14.33;;;12.83;;
13816;SDS011;6979;52.116;5.286;2022-12-18T06:42:07;15.83;;;12.63;;
13816;SDS011;6979;52.116;5.286;2022-12-18T06:44:33;17.20;;;12.33;;
13816;SDS011;6979;52.116;5.286;2022-12-18T06:47:00;15.20;;;11.67;;
13816;SDS011;6979;52.116;5.286;2022-12-18T06:49:28;13.47;;;11.10;;
13816;SDS011;6979;52.116;5.286;2022-12-18T06:51:55;15.87;;;13.23;;
13816;SDS011;6979;52.116;5.286;2022-12-18T06:54:22;16.93;;;13.00;;
13816;SDS011;6979;52.116;5.286;2022-12-18T06:56:49;14.80;;;12.33;;
13816;SDS011;6979;52.116;5.286;2022-12-18T06:59:16;15.53;;;12.27;;
13816;SDS011;6979;52.116;5.286;2022-12-18T07:01:43;14.80;;;11.53;;
13816;SDS011;6979;52.116;5.286;2022-12-18T07:04:10;14.80;;;12.13;;
13816;SDS011;6979;52.116;5.286;2022-12-18T07:06:38;22.43;;;13.40;;
13816;SDS011;6979;52.116;5.286;2022-12-18T07:09:05;15.43;;;12.73;;
13816;SDS011;6979;52.116;5.286;2022-12-18T07:11:32;14.33;;;12.37;;
13816;SDS011;6979;52.116;5.286;2022-12-18T07:13:59;14.97;;;11.80;;
13816;SDS011;6979;52.116;5.286;2022-12-18T07:16:26;15.60;;;13.10;;
13816;SDS011;6979;52.116;5.286;2022-12-18T07:18:54;13.63;;;11.90;;
13816;SDS011;6979;52.116;5.286;2022-12-18T07:21:22;13.60;;;11.67;;
13816;SDS011;6979;52.116;5.286;2022-12-18T07:23:51;14.73;;;12.17;;
13816;SDS011;6979;52.116;5.286;2022-12-18T07:26:19;15.67;;;12.50;;
13816;SDS011;6979;52.116;5.286;2022-12-18T07:28:47;13.83;;;12.43;;
13816;SDS011;6979;52.116;5.286;2022-12-18T07:31:16;13.33;;;11.93;;
13816;SDS011;6979;52.116;5.286;2022-12-18T07:33:44;13.80;;;10.93;;
13816;SDS011;6979;52.116;5.286;2022-12-18T07:36:11;14.43;;;11.77;;
13816;SDS011;6979;52.116;5.286;2022-12-18T07:38:39;14.93;;;10.87;;
13816;SDS011;6979;52.116;5.286;2022-12-18T07:41:08;14.20;;;12.57;;
13816;SDS011;6979;52.116;5.286;2022-12-18T07:43:36;14.17;;;11.83;;
13816;SDS011;6979;52.116;5.286;2022-12-18T07:46:03;12.83;;;10.60;;
13816;SDS011;6979;52.116;5.286;2022-12-18T07:48:31;11.93;;;10.30;;
13816;SDS011;6979;52.116;5.286;2022-12-18T07:50:58;14.97;;;11.13;;
13816;SDS011;6979;52.116;5.286;2022-12-18T07:53:25;13.73;;;12.20;;
13816;SDS011;6979;52.116;5.286;2022-12-18T07:55:54;14.67;;;11.13;;
13816;SDS011;6979;52.116;5.286;2022-12-18T07:58:23;12.17;;;10.80;;
13816;SDS011;6979;52.116;5.286;2022-12-18T08:00:50;14.93;;;10.70;;
13816;SDS011;6979;52.116;5.286;2022-12-18T08:03:17;12.33;;;10.87;;
13816;SDS011;6979;52.116;5.286;2022-12-18T08:05:44;13.57;;;12.10;;
13816;SDS011;6979;52.116;5.286;2022-12-18T08:08:11;13.57;;;12.13;;
13816;SDS011;6979;52.116;5.286;2022-12-18T08:10:38;14.13;;;12.60;;
13816;SDS011;6979;52.116;5.286;2022-12-18T08:13:05;16.07;;;13.40;;
13816;SDS011;6979;52.116;5.286;2022-12-18T08:15:33;13.63;;;12.17;;
13816;SDS011;6979;52.116;5.286;2022-12-18T08:18:00;14.67;;;11.60;;
13816;SDS011;6979;52.116;5.286;2022-12-18T08:20:27;17.23;;;12.00;;
13816;SDS011;6979;52.116;5.286;2022-12-18T08:22:54;14.20;;;11.07;;
13816;SDS011;6979;52.116;5.286;2022-12-18T08:25:23;13.93;;;10.83;;
13816;SDS011;6979;52.116;5.286;2022-12-18T08:27:49;15.47;;;11.97;;
13816;SDS011;6979;52.116;5.286;2022-12-18T08:30:16;14.63;;;12.60;;
13816;SDS011;6979;52.116;5.286;2022-12-18T08:32:45;14.83;;;11.53;;
13816;SDS011;6979;52.116;5.286;2022-12-18T08:35:11;13.27;;;11.67;;
13816;SDS011;6979;52.116;5.286;2022-12-18T08:37:38;12.73;;;10.83;;
13816;SDS011;6979;52.116;5.286;2022-12-18T08:40:06;12.63;;;11.00;;
13816;SDS011;6979;52.116;5.286;2022-12-18T08:42:34;14.07;;;12.40;;
13816;SDS011;6979;52.116;5.286;2022-12-18T08:45:18;12.27;;;10.23;;
13816;SDS011;6979;52.116;5.286;2022-12-18T08:47:46;12.30;;;11.00;;
13816;SDS011;6979;52.116;5.286;2022-12-18T08:50:13;11.90;;;10.67;;
13816;SDS011;6979;52.116;5.286;2022-12-18T08:52:40;13.60;;;10.77;;
13816;SDS011;6979;52.116;5.286;2022-12-18T08:55:07;13.60;;;11.10;;
13816;SDS011;6979;52.116;5.286;2022-12-18T08:57:35;12.53;;;10.03;;
13816;SDS011;6979;52.116;5.286;2022-12-18T09:00:02;11.97;;;10.20;;
13816;SDS011;6979;52.116;5.286;2022-12-18T09:02:29;13.77;;;10.07;;
13816;SDS011;6979;52.116;5.286;2022-12-18T09:04:57;13.33;;;10.97;;
13816;SDS011;6979;52.116;5.286;2022-12-18T09:07:24;12.47;;;10.90;;
13816;SDS011;6979;52.116;5.286;2022-12-18T09:09:51;12.63;;;10.43;;
13816;SDS011;6979;52.116;5.286;2022-12-18T09:12:18;12.90;;;10.40;;
13816;SDS011;6979;52.116;5.286;2022-12-18T09:14:46;11.70;;;9.53;;
13816;SDS011;6979;52.116;5.286;2022-12-18T09:17:12;13.23;;;10.83;;
13816;SDS011;6979;52.116;5.286;2022-12-18T09:19:39;12.60;;;10.20;;
13816;SDS011;6979;52.116;5.286;2022-12-18T09:22:08;11.50;;;9.53;;
13816;SDS011;6979;52.116;5.286;2022-12-18T09:24:35;14.47;;;10.93;;
13816;SDS011;6979;52.116;5.286;2022-12-18T09:27:02;11.77;;;9.17;;
13816;SDS011;6979;52.116;5.286;2022-12-18T09:29:28;11.30;;;9.67;;
13816;SDS011;6979;52.116;5.286;2022-12-18T09:31:55;12.60;;;10.70;;
13816;SDS011;6979;52.116;5.286;2022-12-18T09:34:22;11.90;;;10.57;;
13816;SDS011;6979;52.116;5.286;2022-12-18T09:36:49;12.50;;;10.27;;
13816;SDS011;6979;52.116;5.286;2022-12-18T09:39:17;12.47;;;10.17;;
13816;SDS011;6979;52.116;5.286;2022-12-18T09:41:45;12.80;;;10.40;;
13816;SDS011;6979;52.116;5.286;2022-12-18T09:44:19;14.07;;;11.23;;
13816;SDS011;6979;52.116;5.286;2022-12-18T09:49:40;13.17;;;10.67;;
13816;SDS011;6979;52.116;5.286;2022-12-18T09:52:11;12.10;;;10.20;;
13816;SDS011;6979;52.116;5.286;2022-12-18T09:54:43;13.70;;;10.10;;
13816;SDS011;6979;52.116;5.286;2022-12-18T09:57:14;12.43;;;10.50;;
13816;SDS011;6979;52.116;5.286;2022-12-18T09:59:44;14.47;;;10.73;;
13816;SDS011;6979;52.116;5.286;2022-12-18T10:02:16;10.93;;;9.80;;
13816;SDS011;6979;52.116;5.286;2022-12-18T10:04:48;11.27;;;9.07;;
13816;SDS011;6979;52.116;5.286;2022-12-18T10:07:22;10.80;;;9.50;;
13816;SDS011;6979;52.116;5.286;2022-12-18T10:10:00;11.90;;;10.57;;
13816;SDS011;6979;52.116;5.286;2022-12-18T10:12:34;10.70;;;9.43;;
13816;SDS011;6979;52.116;5.286;2022-12-18T10:15:08;11.20;;;10.00;;
13816;SDS011;6979;52.116;5.286;2022-12-18T10:17:42;11.87;;;9.93;;
13816;SDS011;6979;52.116;5.286;2022-12-18T10:20:18;13.17;;;10.43;;
13816;SDS011;6979;52.116;5.286;2022-12-18T10:22:54;11.87;;;10.67;;
13816;SDS011;6979;52.116;5.286;2022-12-18T10:25:31;12.30;;;10.40;;
13816;SDS011;6979;52.116;5.286;2022-12-18T10:28:07;11.50;;;10.03;;
13816;SDS011;6979;52.116;5.286;2022-12-18T10:30:38;11.77;;;10.13;;
13816;SDS011;6979;52.116;5.286;2022-12-18T10:33:08;12.57;;;10.73;;
13816;SDS011;6979;52.116;5.286;2022-12-18T10:35:40;12.47;;;10.20;;
13816;SDS011;6979;52.116;5.286;2022-12-18T10:38:20;11.87;;;9.53;;
13816;SDS011;6979;52.116;5.286;2022-12-18T10:40:51;10.90;;;9.67;;
13816;SDS011;6979;52.116;5.286;2022-12-18T10:43:20;13.47;;;11.03;;
13816;SDS011;6979;52.116;5.286;2022-12-18T10:46:11;10.73;;;9.57;;
13816;SDS011;6979;52.116;5.286;2022-12-18T10:48:47;11.93;;;10.40;;
13816;SDS011;6979;52.116;5.286;2022-12-18T10:51:22;11.93;;;10.23;;
13816;SDS011;6979;52.116;5.286;2022-12-18T10:53:51;12.97;;;10.47;;
13816;SDS011;6979;52.116;5.286;2022-12-18T10:56:23;12.20;;;9.97;;
13816;SDS011;6979;52.116;5.286;2022-12-18T10:58:55;12.30;;;10.13;;
13816;SDS011;6979;52.116;5.286;2022-12-18T11:01:24;11.03;;;9.70;;
13816;SDS011;6979;52.116;5.286;2022-12-18T11:03:58;12.63;;;9.50;;
13816;SDS011;6979;52.116;5.286;2022-12-18T11:06:27;11.33;;;9.57;;
13816;SDS011;6979;52.116;5.286;2022-12-18T11:08:58;10.97;;;8.87;;
13816;SDS011;6979;52.116;5.286;2022-12-18T11:11:27;10.03;;;9.03;;
13816;SDS011;6979;52.116;5.286;2022-12-18T11:13:57;10.87;;;9.60;;
13816;SDS011;6979;52.116;5.286;2022-12-18T11:16:27;12.83;;;10.57;;
13816;SDS011;6979;52.116;5.286;2022-12-18T11:19:07;11.97;;;9.80;;
13816;SDS011;6979;52.116;5.286;2022-12-18T11:21:45;12.60;;;10.57;;
13816;SDS011;6979;52.116;5.286;2022-12-18T11:24:15;11.00;;;9.57;;
13816;SDS011;6979;52.116;5.286;2022-12-18T11:26:48;11.23;;;9.37;;
13816;SDS011;6979;52.116;5.286;2022-12-18T11:29:16;10.00;;;8.93;;
13816;SDS011;6979;52.116;5.286;2022-12-18T11:31:49;11.77;;;9.67;;
13816;SDS011;6979;52.116;5.286;2022-12-18T11:34:16;11.87;;;9.17;;
13816;SDS011;6979;52.116;5.286;2022-12-18T11:36:48;10.83;;;9.30;;
13816;SDS011;6979;52.116;5.286;2022-12-18T11:39:17;15.27;;;11.90;;
13816;SDS011;6979;52.116;5.286;2022-12-18T11:41:48;11.57;;;9.10;;
13816;SDS011;6979;52.116;5.286;2022-12-18T11:44:45;11.90;;;10.57;;
13816;SDS011;6979;52.116;5.286;2022-12-18T11:47:22;12.37;;;10.33;;
13816;SDS011;6979;52.116;5.286;2022-12-18T11:49:55;11.97;;;10.13;;
13816;SDS011;6979;52.116;5.286;2022-12-18T11:52:27;10.40;;;9.07;;
13816;SDS011;6979;52.116;5.286;2022-12-18T11:54:58;10.23;;;9.07;;
13816;SDS011;6979;52.116;5.286;2022-12-18T11:57:31;10.50;;;8.90;;
13816;SDS011;6979;52.116;5.286;2022-12-18T12:00:04;9.50;;;8.50;;
13816;SDS011;6979;52.116;5.286;2022-12-18T12:02:42;11.93;;;9.67;;
13816;SDS011;6979;52.116;5.286;2022-12-18T12:05:37;11.93;;;9.77;;
13816;SDS011;6979;52.116;5.286;2022-12-18T12:08:13;12.47;;;9.53;;
13816;SDS011;6979;52.116;5.286;2022-12-18T12:10:50;10.27;;;8.90;;
13816;SDS011;6979;52.116;5.286;2022-12-18T12:13:26;11.43;;;9.80;;
13816;SDS011;6979;52.116;5.286;2022-12-18T12:16:07;11.50;;;9.83;;
13816;SDS011;6979;52.116;5.286;2022-12-18T12:18:45;10.80;;;9.60;;
13816;SDS011;6979;52.116;5.286;2022-12-18T12:21:22;11.90;;;9.40;;
13816;SDS011;6979;52.116;5.286;2022-12-18T12:23:56;12.03;;;8.83;;
13816;SDS011;6979;52.116;5.286;2022-12-18T12:26:32;12.80;;;10.33;;
13816;SDS011;6979;52.116;5.286;2022-12-18T12:29:09;10.13;;;8.93;;
13816;SDS011;6979;52.116;5.286;2022-12-18T12:31:55;11.20;;;9.87;;
13816;SDS011;6979;52.116;5.286;2022-12-18T12:34:33;10.90;;;9.80;;
13816;SDS011;6979;52.116;5.286;2022-12-18T12:37:12;11.37;;;10.17;;
13816;SDS011;6979;52.116;5.286;2022-12-18T12:39:51;11.50;;;9.17;;
13816;SDS011;6979;52.116;5.286;2022-12-18T12:42:23;10.70;;;9.13;;
13816;SDS011;6979;52.116;5.286;2022-12-18T12:45:16;11.10;;;9.73;;
13816;SDS011;6979;52.116;5.286;2022-12-18T12:47:48;9.70;;;8.70;;
13816;SDS011;6979;52.116;5.286;2022-12-18T12:50:18;10.73;;;9.37;;
13816;SDS011;6979;52.116;5.286;2022-12-18T12:52:47;10.47;;;9.07;;
13816;SDS011;6979;52.116;5.286;2022-12-18T12:55:19;11.43;;;10.03;;
13816;SDS011;6979;52.116;5.286;2022-12-18T12:57:50;11.23;;;9.63;;
13816;SDS011;6979;52.116;5.286;2022-12-18T13:00:25;14.87;;;11.07;;
13816;SDS011;6979;52.116;5.286;2022-12-18T13:02:59;12.03;;;10.73;;
13816;SDS011;6979;52.116;5.286;2022-12-18T13:05:31;13.50;;;11.07;;
13816;SDS011;6979;52.116;5.286;2022-12-18T13:08:05;11.67;;;10.40;;
13816;SDS011;6979;52.116;5.286;2022-12-18T13:10:34;12.30;;;9.87;;
13816;SDS011;6979;52.116;5.286;2022-12-18T13:13:04;11.33;;;10.13;;
13816;SDS011;6979;52.116;5.286;2022-12-18T13:15:35;11.30;;;10.23;;
13816;SDS011;6979;52.116;5.286;2022-12-18T13:18:14;11.80;;;10.40;;
13816;SDS011;6979;52.116;5.286;2022-12-18T13:20:44;11.87;;;10.60;;
13816;SDS011;6979;52.116;5.286;2022-12-18T13:28:57;14.43;;;10.67;;
13816;SDS011;6979;52.116;5.286;2022-12-18T13:34:35;12.07;;;9.47;;
13816;SDS011;6979;52.116;5.286;2022-12-18T13:46:18;11.33;;;9.63;;
13816;SDS011;6979;52.116;5.286;2022-12-18T13:48:53;11.93;;;10.47;;
13816;SDS011;6979;52.116;5.286;2022-12-18T13:51:24;11.73;;;9.97;;
13816;SDS011;6979;52.116;5.286;2022-12-18T13:53:53;13.10;;;10.17;;
13816;SDS011;6979;52.116;5.286;2022-12-18T13:56:24;9.97;;;8.87;;
13816;SDS011;6979;52.116;5.286;2022-12-18T13:59:03;12.60;;;10.00;;
13816;SDS011;6979;52.116;5.286;2022-12-18T14:01:41;11.20;;;10.07;;
13816;SDS011;6979;52.116;5.286;2022-12-18T14:04:10;12.70;;;10.53;;
13816;SDS011;6979;52.116;5.286;2022-12-18T14:06:39;13.93;;;11.73;;
13816;SDS011;6979;52.116;5.286;2022-12-18T14:09:10;12.47;;;10.97;;
13816;SDS011;6979;52.116;5.286;2022-12-18T14:11:39;11.47;;;10.00;;
13816;SDS011;6979;52.116;5.286;2022-12-18T14:14:07;11.73;;;10.07;;
13816;SDS011;6979;52.116;5.286;2022-12-18T14:16:34;14.67;;;11.27;;
13816;SDS011;6979;52.116;5.286;2022-12-18T14:19:02;12.20;;;10.90;;
13816;SDS011;6979;52.116;5.286;2022-12-18T14:21:29;12.87;;;10.87;;
13816;SDS011;6979;52.116;5.286;2022-12-18T14:24:12;14.10;;;10.70;;
13816;SDS011;6979;52.116;5.286;2022-12-18T14:26:41;12.30;;;10.20;;
13816;SDS011;6979;52.116;5.286;2022-12-18T14:29:18;15.57;;;12.77;;
13816;SDS011;6979;52.116;5.286;2022-12-18T14:32:06;13.80;;;11.43;;
13816;SDS011;6979;52.116;5.286;2022-12-18T14:34:36;14.87;;;11.40;;
13816;SDS011;6979;52.116;5.286;2022-12-18T14:37:03;14.87;;;11.80;;
13816;SDS011;6979;52.116;5.286;2022-12-18T14:39:32;13.30;;;11.70;;
13816;SDS011;6979;52.116;5.286;2022-12-18T14:41:58;11.20;;;10.00;;
13816;SDS011;6979;52.116;5.286;2022-12-18T14:44:25;15.97;;;12.20;;
13816;SDS011;6979;52.116;5.286;2022-12-18T14:46:52;12.33;;;10.77;;
13816;SDS011;6979;52.116;5.286;2022-12-18T14:49:20;13.00;;;11.70;;
13816;SDS011;6979;52.116;5.286;2022-12-18T14:51:51;12.23;;;10.77;;
13816;SDS011;6979;52.116;5.286;2022-12-18T14:54:19;13.93;;;11.50;;
13816;SDS011;6979;52.116;5.286;2022-12-18T14:56:49;13.67;;;11.70;;
13816;SDS011;6979;52.116;5.286;2022-12-18T14:59:22;17.07;;;12.87;;
13816;SDS011;6979;52.116;5.286;2022-12-18T15:01:54;12.40;;;10.90;;
13816;SDS011;6979;52.116;5.286;2022-12-18T15:04:28;13.23;;;11.03;;
13816;SDS011;6979;52.116;5.286;2022-12-18T15:07:09;14.50;;;11.00;;
13816;SDS011;6979;52.116;5.286;2022-12-18T15:09:40;12.67;;;10.87;;
13816;SDS011;6979;52.116;5.286;2022-12-18T15:12:22;13.70;;;10.87;;
13816;SDS011;6979;52.116;5.286;2022-12-18T15:14:54;13.90;;;10.83;;
13816;SDS011;6979;52.116;5.286;2022-12-18T15:17:21;12.50;;;11.17;;
13816;SDS011;6979;52.116;5.286;2022-12-18T15:19:51;14.50;;;11.17;;
13816;SDS011;6979;52.116;5.286;2022-12-18T15:22:20;16.73;;;13.70;;
13816;SDS011;6979;52.116;5.286;2022-12-18T15:24:50;13.77;;;12.27;;